Time;durP1;ratioP1;P1;durP2;ratioP2;P2;SDS_P1;SDS_P2;PMS_P1;PMS_P2;Temp;Humidity;BMP_temperature;BMP_pressure;BME280_temperature;BME280_humidity;BME280_pressure;Samples;Min_cycle;Max_cycle;Signal;HPM_P1;HPM_P2
2021/04/08 00:02:11;;;;;;;7.30;4.18;;;102.90;1536.00;;;;;;5055789;28;20425;-68
2021/04/08 00:04:37;;;;;;;8.90;4.70;;;102.90;1510.40;;;;;;5055438;28;20112;-71
2021/04/08 00:07:03;;;;;;;7.55;4.72;;;102.90;1536.00;;;;;;5056046;28;20129;-71
2021/04/08 00:09:28;;;;;;;8.25;4.40;;;102.90;1536.00;;;;;;5055654;28;20029;-67
2021/04/08 00:11:56;;;;;;;8.07;4.80;;;102.90;1536.00;;;;;;5055513;28;20028;-68
2021/04/08 00:14:22;;;;;;;8.02;4.55;;;102.90;1536.00;;;;;;5055716;28;20029;-71
2021/04/08 00:16:48;;;;;;;6.80;4.30;;;102.80;1536.00;;;;;;5055374;28;20110;-71
2021/04/08 00:19:14;;;;;;;10.73;4.20;;;102.80;1536.00;;;;;;5055336;28;20032;-69
2021/04/08 00:21:40;;;;;;;9.63;4.75;;;102.80;1536.00;;;;;;5055578;28;20029;-67
2021/04/08 00:24:06;;;;;;;11.23;4.68;;;102.80;1536.00;;;;;;5055419;28;20021;-71
2021/04/08 00:26:32;;;;;;;9.55;5.15;;;102.70;1536.00;;;;;;5055197;28;20387;-71
2021/04/08 00:28:58;;;;;;;8.15;4.05;;;102.80;1536.00;;;;;;5054806;28;20037;-68
2021/04/08 00:31:23;;;;;;;11.70;4.78;;;102.70;1561.60;;;;;;5055345;28;20029;-69
2021/04/08 00:33:49;;;;;;;8.55;4.53;;;102.70;1536.00;;;;;;5055499;28;20025;-71
2021/04/08 00:36:15;;;;;;;10.43;4.70;;;102.70;1561.60;;;;;;5054878;28;20041;-68
2021/04/08 00:38:41;;;;;;;10.38;5.15;;;102.60;1561.60;;;;;;5055470;28;20056;-70
2021/04/08 00:41:06;;;;;;;9.05;5.03;;;102.70;1561.60;;;;;;5055685;28;20040;-71
2021/04/08 00:43:32;;;;;;;11.90;5.55;;;102.60;1561.60;;;;;;5054780;28;20478;-69
2021/04/08 00:45:58;;;;;;;15.23;6.80;;;102.60;1561.60;;;;;;5055156;28;20033;-70
2021/04/08 00:48:23;;;;;;;10.05;5.45;;;102.60;1561.60;;;;;;5055046;28;20025;-68
2021/04/08 00:50:50;;;;;;;10.70;5.43;;;102.60;1561.60;;;;;;5054152;28;20184;-69
2021/04/08 00:53:19;;;;;;;7.43;4.80;;;102.50;1561.60;;;;;;5055373;28;20075;-69
2021/04/08 00:55:48;;;;;;;11.50;4.80;;;102.60;1561.60;;;;;;5054953;28;20029;-69
2021/04/08 00:58:15;;;;;;;11.15;5.85;;;102.50;1561.60;;;;;;5054494;28;20033;-68
2021/04/08 01:00:43;;;;;;;10.18;6.07;;;102.50;1561.60;;;;;;5054906;28;20537;-71
2021/04/08 01:03:10;;;;;;;10.98;6.85;;;102.50;1561.60;;;;;;5054716;28;20079;-71
2021/04/08 01:05:36;;;;;;;11.73;6.40;;;102.60;1561.60;;;;;;5054049;28;20497;-68
2021/04/08 01:08:02;;;;;;;12.10;6.93;;;102.50;1561.60;;;;;;5054868;28;20104;-69
2021/04/08 01:10:28;;;;;;;12.25;7.00;;;102.50;1561.60;;;;;;5054640;28;20029;-71
2021/04/08 01:13:03;;;;;;;16.85;8.07;;;102.50;1561.60;;;;;;5054198;28;20032;-71
2021/04/08 01:15:30;;;;;;;12.30;7.85;;;102.50;1561.60;;;;;;5054771;28;20500;-69
2021/04/08 01:18:18;;;;;;;16.08;8.95;;;102.50;1561.60;;;;;;5054443;28;20486;-69
2021/04/08 01:21:10;;;;;;;21.25;9.43;;;102.50;1561.60;;;;;;5053972;28;20029;-71
2021/04/08 01:24:05;;;;;;;16.85;8.13;;;102.50;1561.60;;;;;;4992888;28;20035;-68
2021/04/08 01:27:12;;;;;;;16.08;8.75;;;102.40;1561.60;;;;;;4992081;28;20034;-69
2021/04/08 01:30:07;;;;;;;15.48;7.47;;;102.40;1561.60;;;;;;4987414;28;20476;-68
2021/04/08 01:32:37;;;;;;;12.40;6.82;;;102.40;1587.20;;;;;;4992565;28;20042;-68
2021/04/08 01:35:04;;;;;;;16.05;8.07;;;102.60;1587.20;;;;;;4992213;28;20044;-71
2021/04/08 01:37:35;;;;;;;18.02;7.15;;;77.70;1587.20;;;;;;4992459;28;20050;-71
2021/04/08 01:40:03;;;;;;;13.98;7.00;;;77.70;1587.20;;;;;;4992306;28;20046;-71
2021/04/08 01:42:30;;;;;;;10.55;6.78;;;77.70;1587.20;;;;;;4992001;28;20034;-71
2021/04/08 01:44:57;;;;;;;13.77;7.05;;;77.70;1587.20;;;;;;4992475;28;20069;-68
2021/04/08 01:47:26;;;;;;;10.05;6.32;;;77.70;1587.20;;;;;;4992238;28;20496;-69
2021/04/08 01:49:52;;;;;;;12.40;6.65;;;77.70;1587.20;;;;;;4992013;28;20508;-68
2021/04/08 01:52:19;;;;;;;10.20;6.40;;;77.60;1587.20;;;;;;4992503;28;20519;-69
2021/04/08 01:54:56;;;;;;;12.82;5.80;;;77.60;1587.20;;;;;;4991575;28;20026;-68
2021/04/08 01:57:24;;;;;;;7.82;5.20;;;77.60;1587.20;;;;;;4992148;28;20088;-69
2021/04/08 01:59:50;;;;;;;8.73;5.18;;;77.60;1587.20;;;;;;5004533;28;20064;-69
2021/04/08 02:02:17;;;;;;;9.18;5.05;;;77.60;1587.20;;;;;;5053588;28;20044;-69
2021/04/08 02:04:44;;;;;;;8.70;5.28;;;77.50;1587.20;;;;;;5052813;28;20033;-71
2021/04/08 02:07:11;;;;;;;8.43;5.45;;;77.50;1587.20;;;;;;5053324;28;20043;-69
2021/04/08 02:09:38;;;;;;;8.98;4.93;;;77.50;1612.80;;;;;;5053414;28;20025;-69
2021/04/08 02:12:07;;;;;;;8.30;5.15;;;77.40;1612.80;;;;;;5053155;28;20021;-70
2021/04/08 02:14:35;;;;;;;10.75;5.70;;;77.40;1612.80;;;;;;5053253;28;20119;-69
2021/04/08 02:17:02;;;;;;;13.30;5.57;;;77.40;1612.80;;;;;;5053571;28;20025;-69
2021/04/08 02:19:29;;;;;;;10.00;4.88;;;77.40;1612.80;;;;;;5053335;28;20021;-68
2021/04/08 02:21:57;;;;;;;12.85;5.88;;;77.30;1638.40;;;;;;5053408;28;20025;-69
2021/04/08 02:24:24;;;;;;;7.70;5.32;;;77.30;1638.40;;;;;;5053300;28;20052;-69
2021/04/08 02:26:50;;;;;;;12.18;5.47;;;77.30;1638.40;;;;;;5053120;28;20040;-68
2021/04/08 02:29:18;;;;;;;11.13;5.28;;;77.30;1638.40;;;;;;5053902;28;20104;-69
2021/04/08 02:31:45;;;;;;;9.57;5.38;;;77.30;1638.40;;;;;;5054276;28;20102;-68
2021/04/08 02:34:11;;;;;;;10.65;5.85;;;77.30;1638.40;;;;;;5053945;28;20409;-68
2021/04/08 02:36:38;;;;;;;13.25;5.55;;;77.30;1638.40;;;;;;5054086;28;20045;-68
2021/04/08 02:39:06;;;;;;;8.82;5.60;;;77.30;1664.00;;;;;;5053956;28;20021;-68
2021/04/08 02:41:45;;;;;;;7.85;5.38;;;77.30;1638.40;;;;;;5054051;28;20111;-68
2021/04/08 02:44:12;;;;;;;11.18;6.10;;;77.30;1638.40;;;;;;5054004;28;20112;-68
2021/04/08 02:46:38;;;;;;;11.57;5.63;;;77.20;1638.40;;;;;;5053987;28;20052;-69
2021/04/08 02:49:04;;;;;;;9.70;5.38;;;77.20;1664.00;;;;;;5054008;28;20029;-68
2021/04/08 02:51:45;;;;;;;7.63;5.15;;;77.20;1664.00;;;;;;5053963;28;20104;-68
2021/04/08 02:54:19;;;;;;;8.75;4.82;;;77.20;1664.00;;;;;;5053599;28;20052;-69
2021/04/08 02:56:52;;;;;;;9.77;4.85;;;77.20;1664.00;;;;;;5053792;28;20470;-68
2021/04/08 02:59:23;;;;;;;9.13;5.25;;;77.20;1664.00;;;;;;5053242;28;20386;-68
2021/04/08 03:01:55;;;;;;;7.53;4.90;;;77.20;1664.00;;;;;;5053665;28;20530;-68
2021/04/08 03:04:23;;;;;;;8.00;5.00;;;77.20;1664.00;;;;;;5053394;28;20036;-69
2021/04/08 03:06:51;;;;;;;9.27;4.82;;;77.20;1664.00;;;;;;5051604;28;20041;-68
2021/04/08 03:09:24;;;;;;;7.70;5.18;;;77.20;1689.60;;;;;;5053462;28;20025;-69
2021/04/08 03:11:52;;;;;;;6.45;4.45;;;77.20;1664.00;;;;;;5053637;28;20033;-69
2021/04/08 03:14:21;;;;;;;6.85;4.55;;;77.20;1689.60;;;;;;5053869;28;20024;-68
2021/04/08 03:16:50;;;;;;;8.40;4.50;;;77.20;1664.00;;;;;;5053476;28;20523;-68
2021/04/08 03:19:23;;;;;;;11.77;5.05;;;77.20;1664.00;;;;;;5053661;28;20417;-68
2021/04/08 03:21:50;;;;;;;6.97;4.30;;;77.20;1664.00;;;;;;5053463;28;20089;-68
2021/04/08 03:24:18;;;;;;;6.95;4.75;;;77.10;1664.00;;;;;;5053244;28;20031;-68
2021/04/08 03:26:45;;;;;;;8.25;4.28;;;77.10;1664.00;;;;;;5053585;28;20037;-68
2021/04/08 03:29:13;;;;;;;6.78;4.55;;;77.20;1664.00;;;;;;5053505;28;20025;-68
2021/04/08 03:31:44;;;;;;;6.15;4.20;;;77.20;1664.00;;;;;;5053429;28;20028;-68
2021/04/08 03:34:11;;;;;;;8.15;3.88;;;77.10;1664.00;;;;;;5053387;28;20071;-68
2021/04/08 03:36:38;;;;;;;5.88;4.32;;;77.10;1664.00;;;;;;5053117;28;20056;-68
2021/04/08 03:39:05;;;;;;;10.40;4.40;;;77.10;1664.00;;;;;;5051895;28;20087;-68
2021/04/08 03:41:38;;;;;;;8.00;4.53;;;77.10;1689.60;;;;;;5053380;28;20029;-68
2021/04/08 03:44:07;;;;;;;9.13;4.63;;;77.10;1689.60;;;;;;5053146;28;20049;-68
2021/04/08 03:46:36;;;;;;;8.10;4.60;;;77.10;1689.60;;;;;;5053193;28;20065;-68
2021/04/08 03:49:03;;;;;;;8.05;4.90;;;77.00;1689.60;;;;;;5053158;28;20079;-68
2021/04/08 03:51:30;;;;;;;10.98;5.65;;;77.00;1689.60;;;;;;5053502;28;20052;-68
2021/04/08 03:53:57;;;;;;;10.43;5.47;;;77.00;1689.60;;;;;;5053059;28;20378;-68
2021/04/08 03:56:24;;;;;;;11.60;5.57;;;77.10;1689.60;;;;;;5053619;28;20029;-68
2021/04/08 03:58:52;;;;;;;9.82;5.93;;;77.00;1689.60;;;;;;5051857;28;20040;-68
2021/04/08 04:01:19;;;;;;;8.77;5.20;;;77.10;1689.60;;;;;;5053238;28;20036;-67
2021/04/08 04:03:46;;;;;;;9.75;5.25;;;77.00;1664.00;;;;;;5053003;28;20025;-67
2021/04/08 04:06:12;;;;;;;7.15;4.20;;;77.00;1689.60;;;;;;5053196;28;20051;-68
2021/04/08 04:08:39;;;;;;;7.60;4.57;;;77.00;1689.60;;;;;;5052954;28;20083;-69
2021/04/08 04:11:06;;;;;;;11.35;5.13;;;77.00;1689.60;;;;;;5052988;28;20100;-68
2021/04/08 04:13:33;;;;;;;9.82;5.18;;;77.00;1689.60;;;;;;5052984;28;20111;-67
2021/04/08 04:16:00;;;;;;;8.85;5.70;;;77.00;1689.60;;;;;;5053041;28;20029;-68
2021/04/08 04:18:26;;;;;;;9.00;4.95;;;76.90;1715.20;;;;;;5056139;28;20025;-68
2021/04/08 04:20:52;;;;;;;9.60;4.93;;;76.90;1689.60;;;;;;5056535;28;20120;-67
2021/04/08 04:23:18;;;;;;;9.20;4.88;;;76.90;1715.20;;;;;;5073217;28;20036;-68
2021/04/08 04:25:43;;;;;;;7.70;5.20;;;76.90;1715.20;;;;;;5075502;28;20036;-68
2021/04/08 04:28:09;;;;;;;10.15;5.40;;;76.90;1715.20;;;;;;5075834;28;20119;-67
2021/04/08 04:30:35;;;;;;;10.43;5.90;;;77.00;1715.20;;;;;;5075389;28;20040;-67
2021/04/08 04:33:01;;;;;;;9.32;5.88;;;77.00;1715.20;;;;;;5075511;28;20393;-68
2021/04/08 04:35:27;;;;;;;11.32;6.15;;;77.00;1715.20;;;;;;5072046;28;20070;-67
2021/04/08 04:37:53;;;;;;;20.02;6.93;;;77.00;1715.20;;;;;;5064677;28;20045;-67
2021/04/08 04:40:19;;;;;;;8.00;5.82;;;77.00;1715.20;;;;;;5066417;28;20428;-67
2021/04/08 04:42:45;;;;;;;11.95;6.43;;;77.00;1715.20;;;;;;5064710;28;20021;-68
2021/04/08 04:45:12;;;;;;;13.50;9.13;;;77.00;1715.20;;;;;;5075293;28;20059;-67
2021/04/08 04:47:44;;;;;;;59.00;31.77;;;77.00;1740.80;;;;;;5075557;28;20029;-67
2021/04/08 04:50:12;;;;;;;69.15;42.28;;;77.00;1740.80;;;;;;5074607;28;20051;-68
2021/04/08 04:52:38;;;;;;;97.80;60.83;;;77.00;1740.80;;;;;;5075144;28;20070;-68
2021/04/08 04:55:05;;;;;;;106.22;71.95;;;77.00;1740.80;;;;;;5073330;28;20382;-67
2021/04/08 04:57:31;;;;;;;84.65;54.10;;;77.00;1740.80;;;;;;5075451;28;20497;-71
2021/04/08 04:59:57;;;;;;;77.22;46.53;;;77.10;1740.80;;;;;;5075044;28;20025;-71
2021/04/08 05:02:23;;;;;;;66.93;37.17;;;77.10;1740.80;;;;;;5063828;28;20139;-71
2021/04/08 05:04:49;;;;;;;62.78;36.50;;;77.20;1740.80;;;;;;5064475;28;20406;-70
2021/04/08 05:07:15;;;;;;;50.40;30.80;;;77.20;1766.40;;;;;;5068467;28;20029;-71
2021/04/08 05:09:41;;;;;;;40.67;22.38;;;77.30;1740.80;;;;;;5059094;28;20039;-71
2021/04/08 05:12:07;;;;;;;31.98;19.23;;;77.30;1766.40;;;;;;5075092;28;20017;-72
2021/04/08 05:14:33;;;;;;;27.88;16.95;;;77.30;1766.40;;;;;;5074858;28;20056;-72
2021/04/08 05:17:00;;;;;;;33.83;15.45;;;77.30;1766.40;;;;;;5075126;28;20043;-72
2021/04/08 05:19:26;;;;;;;21.45;12.18;;;77.30;1766.40;;;;;;5067896;28;20020;-72
2021/04/08 05:21:52;;;;;;;16.40;11.05;;;77.40;1766.40;;;;;;5054761;28;20100;-72
2021/04/08 05:24:18;;;;;;;27.45;17.85;;;77.50;1766.40;;;;;;5053215;28;20068;-72
2021/04/08 05:26:44;;;;;;;64.93;46.60;;;77.50;1766.40;;;;;;5062954;28;20381;-71
2021/04/08 05:29:10;;;;;;;75.63;56.13;;;77.50;1766.40;;;;;;5074411;28;20103;-67
2021/04/08 05:31:36;;;;;;;79.15;58.45;;;77.60;1792.00;;;;;;5065188;28;20112;-71
2021/04/08 05:34:01;;;;;;;70.88;55.25;;;77.70;1766.40;;;;;;5075182;28;20020;-71
2021/04/08 05:36:27;;;;;;;58.72;43.95;;;102.40;1792.00;;;;;;5064542;28;20071;-71
2021/04/08 05:38:53;;;;;;;33.05;27.08;;;102.40;1792.00;;;;;;5062953;28;20347;-71
2021/04/08 05:41:19;;;;;;;25.42;17.45;;;102.50;1766.40;;;;;;5065202;28;20047;-71
2021/04/08 05:43:44;;;;;;;18.08;12.40;;;102.60;1766.40;;;;;;5059593;28;20463;-71
2021/04/08 05:46:12;;;;;;;17.15;10.27;;;102.60;1740.80;;;;;;5054846;28;20044;-72
2021/04/08 05:48:37;;;;;;;17.58;10.13;;;102.70;1766.40;;;;;;5054957;28;20032;-70
2021/04/08 05:51:04;;;;;;;15.27;8.48;;;102.80;1792.00;;;;;;5054782;28;20033;-70
2021/04/08 05:53:30;;;;;;;12.65;7.63;;;102.90;1766.40;;;;;;5054907;28;20179;-70
2021/04/08 05:55:56;;;;;;;12.82;6.95;;;103.00;1740.80;;;;;;5054798;28;20401;-69
2021/04/08 05:58:21;;;;;;;35.95;9.38;;;103.00;1740.80;;;;;;5054578;28;20029;-70
2021/04/08 06:00:47;;;;;;;14.38;7.45;;;103.10;1766.40;;;;;;5054481;28;20025;-70
2021/04/08 06:03:13;;;;;;;20.95;8.48;;;103.20;1740.80;;;;;;5054701;28;20459;-70
2021/04/08 06:05:40;;;;;;;14.85;7.85;;;103.30;1715.20;;;;;;5054182;28;20131;-70
2021/04/08 06:08:06;;;;;;;18.38;8.27;;;128.00;1766.40;;;;;;5054321;28;20024;-70
2021/04/08 06:10:32;;;;;;;14.80;7.75;;;128.00;1740.80;;;;;;5054121;28;20029;-70
2021/04/08 06:12:58;;;;;;;13.32;7.13;;;128.10;1740.80;;;;;;5054730;28;20082;-70
2021/04/08 06:15:24;;;;;;;21.65;9.15;;;128.20;1740.80;;;;;;5054183;28;20040;-71
2021/04/08 06:17:49;;;;;;;12.30;7.45;;;128.30;1715.20;;;;;;5054499;28;20021;-70
2021/04/08 06:20:16;;;;;;;15.93;7.30;;;128.40;1715.20;;;;;;5054283;28;20553;-71
2021/04/08 06:22:41;;;;;;;16.35;8.40;;;128.50;1715.20;;;;;;5054201;28;20051;-70
2021/04/08 06:25:08;;;;;;;26.17;10.95;;;128.60;1689.60;;;;;;5053729;28;20482;-71
2021/04/08 06:27:35;;;;;;;22.33;9.23;;;128.80;1689.60;;;;;;5053217;28;20428;-70
2021/04/08 06:30:02;;;;;;;23.13;9.95;;;128.90;1664.00;;;;;;5054369;28;20028;-71
2021/04/08 06:32:28;;;;;;;15.55;8.65;;;153.70;1664.00;;;;;;5054336;28;20025;-71
2021/04/08 06:34:54;;;;;;;18.77;9.32;;;153.80;1638.40;;;;;;5054129;28;20494;-71
2021/04/08 06:37:19;;;;;;;16.77;9.05;;;154.00;1638.40;;;;;;5053568;28;20098;-70
2021/04/08 06:39:46;;;;;;;13.43;8.90;;;154.20;1612.80;;;;;;5052645;28;20021;-71
2021/04/08 06:42:14;;;;;;;13.98;7.15;;;154.30;1587.20;;;;;;5054230;28;20091;-70
2021/04/08 06:44:42;;;;;;;17.25;8.60;;;154.40;1561.60;;;;;;5053975;28;20025;-70
2021/04/08 06:47:09;;;;;;;16.70;8.48;;;179.20;1536.00;;;;;;5054054;28;20037;-70
2021/04/08 06:49:48;;;;;;;17.63;8.95;;;179.40;1536.00;;;;;;5053959;28;20024;-70
2021/04/08 06:52:17;;;;;;;13.93;9.07;;;179.60;1510.40;;;;;;5053793;28;20104;-70
2021/04/08 06:54:43;;;;;;;12.85;7.47;;;179.80;1510.40;;;;;;5052490;28;20055;-70
2021/04/08 06:57:10;;;;;;;15.43;8.10;;;179.90;1459.20;;;;;;5053451;28;20467;-71
2021/04/08 06:59:35;;;;;;;13.32;8.07;;;180.10;1459.20;;;;;;5053696;28;20051;-71
2021/04/08 07:02:01;;;;;;;20.00;9.30;;;204.90;1433.60;;;;;;5053776;28;20029;-70
2021/04/08 07:04:27;;;;;;;18.52;9.52;;;205.10;1408.00;;;;;;5053518;28;20045;-71
2021/04/08 07:06:53;;;;;;;16.20;10.25;;;205.20;1408.00;;;;;;5052911;28;20055;-71
2021/04/08 07:09:19;;;;;;;15.10;9.95;;;205.40;1408.00;;;;;;5053037;28;20029;-71
2021/04/08 07:11:45;;;;;;;16.52;9.38;;;205.60;1382.40;;;;;;5051899;28;20059;-71
2021/04/08 07:14:11;;;;;;;19.00;11.50;;;230.40;1356.80;;;;;;5053760;28;20078;-71
2021/04/08 07:16:38;;;;;;;25.45;18.63;;;230.50;1331.20;;;;;;5053577;28;20029;-70
2021/04/08 07:19:06;;;;;;;20.23;13.18;;;230.70;1305.60;;;;;;5053581;28;20134;-71
2021/04/08 07:21:38;;;;;;;15.93;8.77;;;230.90;1305.60;;;;;;5053736;28;20028;-71
2021/04/08 07:24:17;;;;;;;12.00;7.28;;;231.10;1280.00;;;;;;5053383;28;20382;-70
2021/04/08 07:27:05;;;;;;;13.40;6.60;;;231.20;1254.40;;;;;;5053556;28;20120;-71
2021/04/08 07:29:40;;;;;;;26.50;14.25;;;231.30;1203.20;;;;;;5053557;28;20082;-70
2021/04/08 07:32:06;;;;;;;33.58;18.45;;;231.30;1203.20;;;;;;5053279;28;20014;-70
2021/04/08 07:34:44;;;;;;;35.08;21.35;;;256.00;1203.20;;;;;;5052049;28;20360;-70
2021/04/08 07:37:10;;;;;;;26.15;16.02;;;256.20;1177.60;;;;;;5053171;28;20048;-70
2021/04/08 07:39:38;;;;;;;22.48;11.63;;;256.30;1177.60;;;;;;5053488;28;20526;-71
2021/04/08 07:42:10;;;;;;;20.77;10.18;;;256.40;1152.00;;;;;;5053407;28;20043;-71
2021/04/08 07:44:46;;;;;;;16.08;9.50;;;256.50;1126.40;;;;;;5053322;28;20090;-71
2021/04/08 07:47:29;;;;;;;17.45;9.15;;;256.50;1126.40;;;;;;5053296;28;20033;-71
2021/04/08 07:50:05;;;;;;;17.00;7.45;;;256.60;1126.40;;;;;;5053302;28;20542;-71
2021/04/08 07:52:40;;;;;;;26.13;12.35;;;256.60;1100.80;;;;;;5055149;28;20025;-71
2021/04/08 07:55:18;;;;;;;26.60;12.93;;;256.60;1100.80;;;;;;5057216;28;20079;-71
2021/04/08 07:58:00;;;;;;;19.77;9.70;;;256.60;1075.20;;;;;;5057148;28;20021;-71
2021/04/08 08:00:34;;;;;;;27.33;11.95;;;256.60;1075.20;;;;;;5057151;28;20025;-71
2021/04/08 08:03:03;;;;;;;22.48;10.50;;;256.70;1049.60;;;;;;5057124;28;20603;-71
2021/04/08 08:05:35;;;;;;;16.77;7.65;;;256.70;1049.60;;;;;;5056690;28;20045;-71
2021/04/08 08:08:10;;;;;;;17.92;8.52;;;256.70;1049.60;;;;;;5057097;28;20454;-71
2021/04/08 08:10:39;;;;;;;16.85;9.13;;;256.70;1049.60;;;;;;5057081;28;20025;-71
2021/04/08 08:13:08;;;;;;;11.00;7.25;;;256.70;1024.00;;;;;;5056868;28;20532;-71
2021/04/08 08:15:39;;;;;;;11.32;6.75;;;256.60;1024.00;;;;;;5056746;28;20112;-70
2021/04/08 08:18:05;;;;;;;19.27;8.88;;;256.60;1024.00;;;;;;5056454;28;20029;-71
2021/04/08 08:20:31;;;;;;;14.05;7.78;;;256.50;1049.60;;;;;;5056681;28;20029;-70
2021/04/08 08:22:57;;;;;;;14.93;6.60;;;256.50;1024.00;;;;;;5056682;28;20079;-70
2021/04/08 08:25:29;;;;;;;12.77;8.50;;;256.50;1049.60;;;;;;5056577;28;20469;-71
2021/04/08 08:27:56;;;;;;;18.70;9.05;;;256.50;1049.60;;;;;;5056566;28;20044;-71
2021/04/08 08:30:22;;;;;;;16.45;8.80;;;256.50;1049.60;;;;;;5056544;28;20021;-71
2021/04/08 08:33:10;;;;;;;19.08;9.75;;;256.50;1049.60;;;;;;5056177;28;20368;-71
2021/04/08 08:35:36;;;;;;;17.02;9.98;;;256.60;1024.00;;;;;;5056377;28;20021;-71
2021/04/08 08:38:26;;;;;;;17.42;7.90;;;256.60;1024.00;;;;;;5056385;28;20037;-71
2021/04/08 08:40:53;;;;;;;11.90;7.07;;;256.70;998.40;;;;;;5054691;28;20037;-72
2021/04/08 08:43:21;;;;;;;13.32;8.35;;;256.70;998.40;;;;;;5056465;28;20410;-71
2021/04/08 08:45:48;;;;;;;13.88;6.95;;;256.80;998.40;;;;;;5056087;28;20433;-71
2021/04/08 08:48:19;;;;;;;10.50;6.35;;;256.90;998.40;;;;;;5056254;28;20017;-71
2021/04/08 08:50:48;;;;;;;10.52;6.75;;;281.60;1024.00;;;;;;5056122;28;20104;-71
2021/04/08 08:53:15;;;;;;;13.20;7.97;;;281.70;998.40;;;;;;5055977;28;20033;-71
2021/04/08 08:55:42;;;;;;;14.73;7.75;;;281.80;998.40;;;;;;5056032;28;20107;-71
2021/04/08 08:58:07;;;;;;;13.05;6.68;;;282.10;998.40;;;;;;5055855;28;20021;-71
2021/04/08 09:00:34;;;;;;;15.68;5.60;;;282.30;972.80;;;;;;5055762;28;20162;-71
2021/04/08 09:03:01;;;;;;;15.35;6.00;;;282.50;921.60;;;;;;5055206;28;20029;-71
2021/04/08 09:05:30;;;;;;;9.68;5.60;;;307.20;921.60;;;;;;5055213;28;20033;-70
2021/04/08 09:08:00;;;;;;;10.90;6.68;;;307.30;921.60;;;;;;5055664;28;20036;-71
2021/04/08 09:10:32;;;;;;;11.02;6.13;;;307.40;921.60;;;;;;5055742;28;20051;-70
2021/04/08 09:12:58;;;;;;;16.15;5.63;;;307.60;870.40;;;;;;5055615;28;20033;-72
2021/04/08 09:15:25;;;;;;;15.65;6.55;;;307.80;870.40;;;;;;5055575;28;20151;-71
2021/04/08 09:18:04;;;;;;;10.27;5.82;;;307.90;844.80;;;;;;5055551;28;20017;-71
2021/04/08 09:20:30;;;;;;;22.08;7.80;;;308.00;844.80;;;;;;5055687;28;20021;-73
2021/04/08 09:22:57;;;;;;;34.35;9.93;;;308.10;819.20;;;;;;5055450;28;20378;-78
2021/04/08 09:25:51;;;;;;;24.38;8.98;;;332.90;870.40;;;;;;5055437;28;20137;-74
2021/04/08 09:28:18;;;;;;;13.32;7.22;;;333.00;819.20;;;;;;5013514;28;20037;-73
2021/04/08 09:30:55;;;;;;;14.00;7.05;;;333.10;768.00;;;;;;5013562;28;20048;-74
2021/04/08 09:33:39;;;;;;;27.92;6.05;;;333.20;793.60;;;;;;5013698;28;20049;-71
2021/04/08 09:36:25;;;;;;;14.95;5.18;;;333.30;793.60;;;;;;5009710;28;20041;-72
2021/04/08 09:38:51;;;;;;;18.55;7.00;;;333.30;793.60;;;;;;4934724;29;20036;-73
2021/04/08 09:41:17;;;;;;;56.55;35.80;;;333.30;819.20;;;;;;4934700;29;20046;-70
2021/04/08 09:43:44;;;;;;;71.28;45.92;;;333.20;819.20;;;;;;4934507;29;20394;-76
2021/04/08 09:46:12;;;;;;;68.88;51.53;;;333.10;844.80;;;;;;4934571;29;20450;-76
2021/04/08 09:48:48;;;;;;;186.05;128.05;;;333.00;844.80;;;;;;4934940;29;20027;-70
2021/04/08 09:51:45;;;;;;;66.22;50.00;;;333.00;844.80;;;;;;4934153;29;20039;-74
2021/04/08 09:54:17;;;;;;;22.63;16.85;;;333.00;844.80;;;;;;4934688;29;20473;-75
2021/04/08 09:56:55;;;;;;;15.05;7.72;;;332.90;844.80;;;;;;4934479;29;20103;-74
2021/04/08 09:59:22;;;;;;;12.30;9.88;;;332.90;819.20;;;;;;4934018;29;20067;-76
2021/04/08 10:01:48;;;;;;;33.30;26.33;;;332.90;844.80;;;;;;4934308;29;20036;-70
2021/04/08 10:04:18;;;;;;;24.95;18.83;;;332.90;844.80;;;;;;4938288;28;20444;-76
2021/04/08 10:06:45;;;;;;;37.70;32.00;;;332.80;844.80;;;;;;4972474;28;20061;-74
2021/04/08 10:09:14;;;;;;;29.73;22.67;;;332.80;844.80;;;;;;4972882;28;20034;-75
2021/04/08 10:11:40;;;;;;;21.65;16.02;;;332.90;844.80;;;;;;4957135;28;20035;-81
2021/04/08 10:14:25;;;;;;;11.75;8.18;;;333.00;870.40;;;;;;4973194;28;20106;-79
2021/04/08 10:17:03;;;;;;;9.90;5.38;;;333.20;844.80;;;;;;5044441;28;20037;-77
2021/04/08 10:19:40;;;;;;;13.15;5.40;;;333.30;870.40;;;;;;5053851;28;20462;-75
2021/04/08 10:22:09;;;;;;;13.77;5.88;;;333.40;844.80;;;;;;5054322;28;20052;-74
2021/04/08 10:24:38;;;;;;;17.98;6.55;;;333.50;870.40;;;;;;5054057;28;20094;-75
2021/04/08 10:27:14;;;;;;;12.57;5.50;;;333.50;870.40;;;;;;5054273;28;20040;-73
2021/04/08 10:29:40;;;;;;;7.82;5.03;;;333.50;870.40;;;;;;5054249;28;20435;-73
2021/04/08 10:32:07;;;;;;;15.20;6.78;;;333.60;844.80;;;;;;5053141;28;20029;-76
2021/04/08 10:34:35;;;;;;;7.88;5.45;;;358.40;844.80;;;;;;5054330;28;20096;-73
2021/04/08 10:37:01;;;;;;;14.27;5.97;;;358.40;844.80;;;;;;5054284;28;20048;-78
2021/04/08 10:39:33;;;;;;;24.63;5.82;;;358.40;844.80;;;;;;5053851;28;20437;-77
2021/04/08 10:42:04;;;;;;;24.70;22.05;;;358.40;844.80;;;;;;5054079;28;20053;-76
2021/04/08 10:44:31;;;;;;;79.90;62.47;;;333.70;844.80;;;;;;5054147;28;20029;-77
2021/04/08 10:47:09;;;;;;;76.18;56.40;;;333.60;844.80;;;;;;5052735;28;20387;-76
2021/04/08 10:49:42;;;;;;;57.45;45.90;;;333.70;870.40;;;;;;5053794;28;20021;-78
2021/04/08 10:52:11;;;;;;;32.42;22.58;;;333.60;870.40;;;;;;5053846;28;20402;-77
2021/04/08 10:54:39;;;;;;;31.58;24.88;;;333.70;870.40;;;;;;5053824;28;20027;-76
2021/04/08 10:57:06;;;;;;;31.25;27.23;;;333.60;870.40;;;;;;5053884;28;20033;-76
2021/04/08 10:59:33;;;;;;;47.17;34.17;;;333.50;870.40;;;;;;5053737;28;20021;-76
2021/04/08 11:02:01;;;;;;;23.02;18.55;;;333.60;870.40;;;;;;5053663;28;20029;-76
2021/04/08 11:04:27;;;;;;;10.43;7.97;;;358.40;870.40;;;;;;5052479;28;20394;-76
2021/04/08 11:06:56;;;;;;;8.73;6.25;;;358.40;844.80;;;;;;5053789;28;20033;-71
2021/04/08 11:09:26;;;;;;;8.18;5.03;;;358.40;844.80;;;;;;5052355;28;20527;-73
2021/04/08 11:11:53;;;;;;;7.05;4.57;;;358.40;844.80;;;;;;5053881;28;20032;-73
2021/04/08 11:14:23;;;;;;;9.15;4.90;;;358.40;870.40;;;;;;5053753;28;20029;-72
2021/04/08 11:16:51;;;;;;;11.27;6.18;;;358.40;844.80;;;;;;5053867;28;20025;-77
2021/04/08 11:19:18;;;;;;;12.75;6.72;;;358.40;844.80;;;;;;5053646;28;20024;-73
2021/04/08 11:21:44;;;;;;;15.88;7.03;;;358.40;844.80;;;;;;5053343;28;20033;-78
2021/04/08 11:24:11;;;;;;;15.90;6.75;;;358.40;844.80;;;;;;5053459;28;20075;-80
2021/04/08 11:26:53;;;;;;;8.27;4.82;;;333.70;844.80;;;;;;5054215;28;20155;-78
2021/04/08 11:29:28;;;;;;;11.43;5.50;;;333.50;819.20;;;;;;5057646;28;20025;-80
2021/04/08 11:32:12;;;;;;;14.00;7.97;;;333.50;819.20;;;;;;5057652;28;20644;-80
2021/04/08 11:34:55;;;;;;;12.88;8.05;;;333.50;844.80;;;;;;5057573;28;20078;-71
2021/04/08 11:37:37;;;;;;;16.17;10.70;;;333.50;793.60;;;;;;5056926;28;20112;-78
2021/04/08 11:40:08;;;;;;;15.45;10.32;;;333.50;819.20;;;;;;5055517;28;20025;-77
2021/04/08 11:42:37;;;;;;;10.00;7.70;;;333.50;819.20;;;;;;5057258;28;20491;-74
2021/04/08 11:45:42;;;;;;;16.52;6.55;;;333.40;819.20;;;;;;5057177;28;20032;-76
2021/04/08 11:48:08;;;;;;;12.98;6.25;;;333.30;819.20;;;;;;5015542;28;20030;-75
2021/04/08 11:50:41;;;;;;;12.68;6.72;;;333.20;819.20;;;;;;5022171;28;20021;-75
2021/04/08 11:53:09;;;;;;;13.60;5.22;;;333.10;819.20;;;;;;5026195;28;20037;-74
2021/04/08 11:55:55;;;;;;;13.82;6.40;;;333.00;793.60;;;;;;5024530;28;20022;-75
2021/04/08 11:58:31;;;;;;;10.98;5.55;;;333.00;793.60;;;;;;5024336;28;20120;-72
2021/04/08 12:01:18;;;;;;;12.63;6.07;;;332.80;793.60;;;;;;5024584;28;20037;-77
2021/04/08 12:03:49;;;;;;;6.43;4.15;;;332.90;793.60;;;;;;5020488;28;20079;-77
2021/04/08 12:06:19;;;;;;;11.15;6.13;;;332.80;844.80;;;;;;5020486;28;20129;-78
2021/04/08 12:08:52;;;;;;;16.52;7.15;;;308.10;819.20;;;;;;5011187;28;20024;-77
2021/04/08 12:11:20;;;;;;;22.95;9.00;;;308.10;793.60;;;;;;5021469;28;20026;-78
2021/04/08 12:14:01;;;;;;;13.18;6.80;;;308.00;793.60;;;;;;5006048;28;20041;-80
2021/04/08 12:16:28;;;;;;;11.65;5.95;;;308.00;793.60;;;;;;5025385;28;20033;-76
2021/04/08 12:18:54;;;;;;;9.45;5.80;;;308.00;793.60;;;;;;5043734;28;20064;-78
2021/04/08 12:21:20;;;;;;;9.73;5.68;;;307.90;793.60;;;;;;5075106;28;20020;-75
2021/04/08 12:23:47;;;;;;;11.75;5.00;;;307.90;819.20;;;;;;5075302;28;20484;-78
2021/04/08 12:26:14;;;;;;;8.70;2.28;;;307.80;793.60;;;;;;5075340;28;20075;-78